createdAt,value
2023-02-07T00:03:10.766Z,12.1
2023-02-07T00:08:54.842Z,9.8
2023-02-07T00:14:38.594Z,12.2
2023-02-07T00:20:22.671Z,12.6
2023-02-07T00:26:07.317Z,10.2
2023-02-07T00:31:51.280Z,12.2
2023-02-07T00:37:35.043Z,12.2
2023-02-07T00:43:31.195Z,13.9
2023-02-07T00:49:15.133Z,11.4
2023-02-07T00:54:58.871Z,15.6
2023-02-07T01:00:42.662Z,13
2023-02-07T01:06:26.522Z,14.6
2023-02-07T01:12:10.447Z,12.9
2023-02-07T01:17:54.180Z,12.3
2023-02-07T01:23:38.855Z,12.2
2023-02-07T01:29:23.599Z,13.4
2023-02-07T01:35:07.426Z,15.8
2023-02-07T01:40:52.188Z,14.3
2023-02-07T01:46:37.270Z,12.1
2023-02-07T01:52:24.047Z,15
2023-02-07T01:58:08.354Z,15.7
2023-02-07T02:03:58.928Z,15
2023-02-07T02:09:42.891Z,14.9
2023-02-07T02:15:33.054Z,15.9
2023-02-07T02:21:26.602Z,13.6
2023-02-07T02:27:14.240Z,15
2023-02-07T02:33:16.606Z,14.6
2023-02-07T02:39:03.307Z,18.7
2023-02-07T02:44:51.145Z,17.1
2023-02-07T02:50:36.823Z,15.2
2023-02-07T02:56:29.933Z,14.8
2023-02-07T03:02:19.443Z,16.9
2023-02-07T03:08:07.638Z,17.5
2023-02-07T03:13:59.259Z,14.4
2023-02-07T03:19:45.793Z,16.6
2023-02-07T03:25:30.574Z,15.5
2023-02-07T03:31:16.725Z,15.8
2023-02-07T03:37:02.950Z,14.8
2023-02-07T03:42:50.577Z,13.6
2023-02-07T03:48:34.376Z,14.5
2023-02-07T03:54:18.555Z,13.6
2023-02-07T04:00:02.212Z,13.8
2023-02-07T04:05:46.247Z,14.8
2023-02-07T04:11:29.940Z,14.3
2023-02-07T04:17:13.943Z,13.9
2023-02-07T04:22:57.747Z,12.1
2023-02-07T04:28:41.626Z,11.7
2023-02-07T04:34:25.479Z,13.8
2023-02-07T04:40:09.567Z,12.8
2023-02-07T04:45:53.357Z,12.6
2023-02-07T04:51:37.022Z,13.8
2023-02-07T04:57:20.742Z,12.9
2023-02-07T05:03:04.374Z,13.6
2023-02-07T05:08:48.330Z,12.4
2023-02-07T05:14:32.363Z,13.4
2023-02-07T05:20:16.684Z,12.9
2023-02-07T05:26:00.370Z,13.1
2023-02-07T05:31:44.674Z,12.9
2023-02-07T05:37:28.968Z,12.2
2023-02-07T05:43:13.570Z,13.6
2023-02-07T05:48:57.436Z,13.3
2023-02-07T05:54:42.215Z,13.2
2023-02-07T06:00:26.433Z,12.2
2023-02-07T06:06:10.634Z,14.5
2023-02-07T06:11:54.402Z,13.3
2023-02-07T06:17:38.208Z,12.7
2023-02-07T06:23:22.011Z,12.3
2023-02-07T06:29:06.162Z,12.5
2023-02-07T06:34:50.035Z,11.6
2023-02-07T06:40:34.342Z,13.7
2023-02-07T06:46:18.568Z,13.1
2023-02-07T06:52:02.340Z,12.8
2023-02-07T06:57:45.835Z,12.2
2023-02-07T07:03:29.599Z,11.4
2023-02-07T07:09:13.406Z,10.6
2023-02-07T07:14:57.218Z,10.9
2023-02-07T07:20:40.991Z,11
2023-02-07T07:26:24.731Z,13.7
2023-02-07T07:32:08.458Z,10.4
2023-02-07T07:37:52.151Z,9.8
2023-02-07T07:43:35.971Z,10.2
2023-02-07T07:49:19.767Z,11.5
2023-02-07T07:55:03.631Z,11.6
2023-02-07T08:00:48.040Z,10.7
2023-02-07T08:06:32.323Z,9.6
2023-02-07T08:12:15.900Z,9.7
2023-02-07T08:17:59.763Z,10.2
2023-02-07T08:23:43.731Z,10.1
2023-02-07T08:29:27.503Z,9.4
2023-02-07T08:35:12.431Z,9.1
2023-02-07T08:40:56.280Z,10.5
2023-02-07T08:46:40.435Z,10.4
2023-02-07T08:52:24.202Z,9.6
2023-02-07T08:58:08.734Z,11.4
2023-02-07T09:03:52.583Z,9.9
2023-02-07T09:09:36.570Z,10.9
2023-02-07T09:15:20.452Z,10.5
2023-02-07T09:21:04.205Z,10.9
2023-02-07T09:26:47.987Z,10.4
2023-02-07T09:32:31.655Z,10.6
2023-02-07T09:38:16.214Z,10.7
2023-02-07T09:44:10.215Z,11.6
2023-02-07T09:49:56.561Z,12.1
2023-02-07T09:55:45.761Z,10.8
2023-02-07T10:01:32.172Z,11.4
2023-02-07T10:07:15.867Z,10.4
2023-02-07T10:13:11.574Z,13
2023-02-07T10:18:58.523Z,10.4
2023-02-07T10:24:50.936Z,12.5
2023-02-07T10:30:36.498Z,10.1
2023-02-07T10:36:20.709Z,11.5
2023-02-07T10:42:04.533Z,11.3
2023-02-07T10:47:48.513Z,9.1
2023-02-07T10:53:58.114Z,10
2023-02-07T10:59:43.819Z,11.1
2023-02-07T11:05:35.352Z,9.8
2023-02-07T11:11:35.303Z,8.4
2023-02-07T11:17:23.162Z,8.8
2023-02-07T11:23:08.030Z,9.3
2023-02-07T11:28:53.655Z,8.8
2023-02-07T11:34:48.630Z,7.9
2023-02-07T11:40:38.216Z,8.3
2023-02-07T11:46:22.239Z,8.3
2023-02-07T11:52:06.279Z,7.5
2023-02-07T11:57:50.221Z,6.8
2023-02-07T12:03:35.875Z,8.2
2023-02-07T12:09:24.440Z,9.2
2023-02-07T12:15:09.724Z,7.8
2023-02-07T12:20:57.054Z,7.6
2023-02-07T12:26:43.314Z,9.2
2023-02-07T12:32:33.014Z,11.7
2023-02-07T12:38:20.196Z,10.7
2023-02-07T12:44:09.118Z,11.1
2023-02-07T12:50:06.919Z,13.1
2023-02-07T12:55:56.975Z,10.6
2023-02-07T13:01:45.490Z,12.9
2023-02-07T13:07:36.729Z,11.5
2023-02-07T13:13:24.536Z,10.1
2023-02-07T13:19:13.802Z,9.6
2023-02-07T13:24:58.149Z,8.7
2023-02-07T13:30:42.364Z,16
2023-02-07T13:36:31.096Z,15.1
2023-02-07T13:42:22.520Z,15.8
2023-02-07T13:48:11.743Z,17.3
2023-02-07T13:53:58.353Z,14.3
2023-02-07T13:59:42.596Z,14.3
2023-02-07T14:05:30.536Z,13.4
2023-02-07T14:11:24.742Z,14
2023-02-07T14:17:09.171Z,12.7
2023-02-07T14:23:04.419Z,12.4
2023-02-07T14:28:48.143Z,12.9
2023-02-07T14:34:33.558Z,13
2023-02-07T14:40:25.155Z,17.1
2023-02-07T14:46:14.729Z,14.2
2023-02-07T14:52:01.223Z,16.8
2023-02-07T14:57:49.730Z,14.2
2023-02-07T15:03:37.585Z,15.3
2023-02-07T15:09:24.603Z,13.2
2023-02-07T15:15:08.837Z,13.5
2023-02-07T15:20:58.717Z,14.8
2023-02-07T15:26:43.055Z,16.1
2023-02-07T15:32:28.232Z,17.3
2023-02-07T15:38:24.048Z,17.8
2023-02-07T15:44:08.974Z,15.7
2023-02-07T15:49:57.676Z,14.9
2023-02-07T15:55:46.467Z,13.5
2023-02-07T16:01:31.633Z,13.1
2023-02-07T16:07:16.328Z,14.1
2023-02-07T16:13:01.982Z,14.7
2023-02-07T16:18:47.147Z,13.4
2023-02-07T16:24:31.715Z,12.4
2023-02-07T16:30:23.452Z,13
2023-02-07T16:36:07.272Z,11.3
2023-02-07T16:41:52.578Z,11.9
2023-02-07T16:47:36.220Z,11.4
2023-02-07T16:53:20.075Z,11.9
2023-02-07T16:59:03.889Z,10
2023-02-07T17:04:47.750Z,11.4
2023-02-07T17:10:39.375Z,11.1
2023-02-07T17:16:24.489Z,9.8
2023-02-07T17:22:08.550Z,10.1
2023-02-07T17:27:52.492Z,8.6
2023-02-07T17:33:36.512Z,9.6
2023-02-07T17:39:21.617Z,9.2
2023-02-07T17:45:05.574Z,10.2
2023-02-07T17:50:49.173Z,9.7
2023-02-07T17:56:34.240Z,10.1
2023-02-07T18:02:18.365Z,9
2023-02-07T18:08:02.282Z,9.3
2023-02-07T18:13:47.774Z,9.7
2023-02-07T18:19:31.626Z,9.1
2023-02-07T18:25:16.145Z,9.8
2023-02-07T18:31:00.872Z,11.6
2023-02-07T18:36:44.803Z,9.8
2023-02-07T18:42:28.646Z,11.7
2023-02-07T18:48:12.371Z,10.5
2023-02-07T18:53:56.243Z,11.3
2023-02-07T18:59:40.713Z,12.3
2023-02-07T19:05:24.658Z,12.9
2023-02-07T19:11:09.358Z,11.1
2023-02-07T19:16:54.735Z,11.8
2023-02-07T19:22:39.944Z,12.2
2023-02-07T19:28:24.192Z,12.6
2023-02-07T19:34:08.051Z,13.1
2023-02-07T19:39:52.042Z,12.5
2023-02-07T19:45:36.198Z,15.9
2023-02-07T19:51:21.686Z,13
2023-02-07T19:57:05.540Z,13.3
2023-02-07T20:02:49.233Z,13.4
2023-02-07T20:08:33.638Z,14.1
2023-02-07T20:14:18.493Z,12.2
2023-02-07T20:20:02.936Z,13.7
2023-02-07T20:25:46.878Z,12.5
2023-02-07T20:31:31.444Z,15.5
2023-02-07T20:37:15.456Z,12.4
2023-02-07T20:42:59.260Z,12.6
2023-02-07T20:48:43.334Z,12.5
2023-02-07T20:54:27.933Z,13.9
2023-02-07T21:00:13.395Z,12.1
2023-02-07T21:05:57.357Z,13.9
2023-02-07T21:11:42.152Z,13.1
2023-02-07T21:17:25.872Z,14.2
2023-02-07T21:23:09.807Z,14.2
2023-02-07T21:28:53.715Z,14.4
2023-02-07T21:34:37.613Z,15.3
2023-02-07T21:40:21.459Z,17.2
2023-02-07T21:46:09.595Z,15.4
2023-02-07T21:51:53.606Z,16.1
2023-02-07T21:57:37.159Z,15.3
2023-02-07T22:03:20.833Z,16.7
2023-02-07T22:09:04.736Z,16.4
2023-02-07T22:14:48.554Z,18
2023-02-07T22:20:32.304Z,19.6
2023-02-07T22:26:16.414Z,17.5
2023-02-07T22:32:00.494Z,17.1
2023-02-07T22:37:44.325Z,17.3
2023-02-07T22:43:28.139Z,19.9
2023-02-07T22:49:12.159Z,19.4
2023-02-07T22:54:56.031Z,19.7
2023-02-07T23:00:40.859Z,18.7
2023-02-07T23:06:25.773Z,18.8
2023-02-07T23:12:09.676Z,18.4
2023-02-07T23:17:53.443Z,19.2
2023-02-07T23:23:38.064Z,19.5
2023-02-07T23:29:21.962Z,21.7
2023-02-07T23:35:06.026Z,19.4
2023-02-07T23:40:49.752Z,18.8
2023-02-07T23:46:33.617Z,20.4
2023-02-07T23:52:17.505Z,20
2023-02-07T23:58:01.261Z,19.1
